Time;durP1;ratioP1;P1;durP2;ratioP2;P2;SDS_P1;SDS_P2;PMS_P1;PMS_P2;Temp;Humidity;BMP_temperature;BMP_pressure;BME280_temperature;BME280_humidity;BME280_pressure;Samples;Min_cycle;Max_cycle;Signal;HPM_P1;HPM_P2
2022/05/20 00:00:52;;;;;;;;;;;;;;;11.32;81.07;102136.22;6043804;23;19917;-74
2022/05/20 00:03:18;;;;;;;;;;;;;;;11.27;81.12;102138.81;6046165;23;20300;-74
2022/05/20 00:05:43;;;;;;;;;;;;;;;11.20;81.57;102131.78;6067083;23;19913;-74
2022/05/20 00:08:08;;;;;;;;;;;;;;;11.15;81.61;102130.84;6045646;23;20277;-74
2022/05/20 00:10:34;;;;;;;;;;;;;;;11.12;81.37;102133.47;6068914;23;19909;-74
2022/05/20 00:13:00;;;;;;;;;;;;;;;11.10;81.61;102141.31;6045101;23;20252;-74
2022/05/20 00:15:27;;;;;;;;;;;;;;;11.06;82.48;102143.06;6042963;23;20297;-73
2022/05/20 00:17:52;;;;;;;;;;;;;;;11.00;83.56;102143.00;6068770;23;19936;-74
2022/05/20 00:20:19;;;;;;;;;;;;;;;10.94;84.03;102139.47;6044020;23;19992;-73
2022/05/20 00:22:44;;;;;;;;;;;;;;;10.89;83.38;102136.81;6069022;23;19931;-73
2022/05/20 00:27:55;;;;;;;;;;;;;;;10.82;83.90;102130.63;6092719;23;20012;-74
2022/05/20 00:30:20;;;;;;;;;;;;;;;10.79;83.80;102143.72;6068630;23;19940;-73
2022/05/20 00:32:46;;;;;;;;;;;;;;;10.75;83.75;102128.84;6044694;23;19941;-74
2022/05/20 00:35:14;;;;;;;;;;;;;;;10.72;83.53;102127.06;6043682;23;19921;-74
2022/05/20 00:37:40;;;;;;;;;;;;;;;10.71;83.02;102122.66;6070060;23;19976;-74
2022/05/20 00:40:07;;;;;;;;;;;;;;;10.69;82.63;102124.41;5982423;23;20437;-74
2022/05/20 00:42:33;;;;;;;;;;;;;;;10.65;83.01;102127.88;5981446;23;20309;-74
2022/05/20 00:44:59;;;;;;;;;;;;;;;10.60;82.79;102126.94;5982164;23;19938;-74
2022/05/20 00:47:24;;;;;;;;;;;;;;;10.60;82.53;102128.69;5960217;23;19919;-73
2022/05/20 00:49:52;;;;;;;;;;;;;;;10.59;82.74;102127.84;5958998;23;19914;-74
2022/05/20 00:52:19;;;;;;;;;;;;;;;10.61;82.76;102128.72;5982991;23;19910;-74
2022/05/20 00:54:47;;;;;;;;;;;;;;;10.64;82.93;102126.09;5982478;23;19910;-74
2022/05/20 00:57:15;;;;;;;;;;;;;;;10.66;82.96;102119.16;5983929;23;20209;-78
2022/05/20 00:59:45;;;;;;;;;;;;;;;10.67;82.69;102123.50;5981909;23;19989;-78
2022/05/20 01:02:14;;;;;;;;;;;;;;;10.66;82.78;102127.00;5982613;23;19910;-77
2022/05/20 01:04:40;;;;;;;;;;;;;;;10.68;82.86;102121.78;5982043;23;19914;-77
2022/05/20 01:07:06;;;;;;;;;;;;;;;10.68;82.97;102125.28;5982449;23;20054;-77
2022/05/20 01:09:32;;;;;;;;;;;;;;;10.71;82.65;102121.81;5960821;23;19922;-78
2022/05/20 01:11:57;;;;;;;;;;;;;;;10.72;82.99;102120.94;6032108;23;20355;-77
2022/05/20 01:14:25;;;;;;;;;;;;;;;10.71;83.50;102120.06;6045319;23;20307;-77
2022/05/20 01:16:52;;;;;;;;;;;;;;;10.68;83.70;102113.91;6069884;23;19909;-77
2022/05/20 01:19:38;;;;;;;;;;;;;;;10.64;83.51;102120.88;6044492;23;20618;-77
2022/05/20 01:22:05;;;;;;;;;;;;;;;10.64;83.70;102118.25;6069215;23;19944;-78
2022/05/20 01:24:31;;;;;;;;;;;;;;;10.60;83.81;102116.47;6068091;23;19991;-78
2022/05/20 01:26:56;;;;;;;;;;;;;;;10.56;83.73;102122.56;6069834;23;19948;-77
2022/05/20 01:29:21;;;;;;;;;;;;;;;10.55;84.19;102123.41;6045542;23;19913;-77
2022/05/20 01:31:47;;;;;;;;;;;;;;;10.51;84.36;102125.13;6046034;23;19913;-77
2022/05/20 01:34:12;;;;;;;;;;;;;;;10.47;85.08;102122.47;6043475;23;19923;-77
2022/05/20 01:36:40;;;;;;;;;;;;;;;10.42;84.60;102118.94;6046594;23;19913;-77
2022/05/20 01:39:05;;;;;;;;;;;;;;;10.37;85.06;102121.50;6069351;23;19914;-77
2022/05/20 01:41:49;;;;;;;;;;;;;;;10.32;86.17;102110.94;6069983;23;19911;-77
2022/05/20 01:44:15;;;;;;;;;;;;;;;10.29;85.52;102108.28;6066920;23;20127;-77
2022/05/20 01:46:56;;;;;;;;;;;;;;;10.25;84.74;102101.28;6069401;23;19940;-77
2022/05/20 01:49:35;;;;;;;;;;;;;;;10.24;83.17;102099.50;6068294;23;19914;-77
2022/05/20 01:52:06;;;;;;;;;;;;;;;10.23;83.42;102098.63;6069369;23;19916;-77
2022/05/20 01:54:43;;;;;;;;;;;;;;;10.23;82.78;102095.16;6069185;23;20343;-78
2022/05/20 01:57:22;;;;;;;;;;;;;;;10.20;80.88;102092.47;6069585;23;19988;-77
2022/05/20 01:59:50;;;;;;;;;;;;;;;10.18;80.89;102081.97;6068779;23;19913;-78
2022/05/20 02:02:25;;;;;;;;;;;;;;;10.18;82.19;102084.59;6068959;23;19916;-78
2022/05/20 02:04:54;;;;;;;;;;;;;;;10.18;82.87;102083.72;6067259;23;19909;-78
2022/05/20 02:07:23;;;;;;;;;;;;;;;10.19;83.17;102088.13;6069467;23;19952;-78
2022/05/20 02:10:06;;;;;;;;;;;;;;;10.17;83.63;102076.72;6070023;23;19909;-78
2022/05/20 02:12:34;;;;;;;;;;;;;;;10.17;83.22;102092.44;6067071;23;19918;-78
2022/05/20 02:15:18;;;;;;;;;;;;;;;10.16;83.45;102094.19;6068440;23;20012;-78
2022/05/20 02:17:46;;;;;;;;;;;;;;;10.16;83.66;102081.09;6068260;23;19952;-78
2022/05/20 02:20:44;;;;;;;;;;;;;;;10.16;84.02;102075.88;6068177;23;19963;-78
2022/05/20 02:23:12;;;;;;;;;;;;;;;10.17;83.95;102087.22;6007345;23;19916;-78
2022/05/20 02:25:40;;;;;;;;;;;;;;;10.16;83.89;102077.63;6069744;23;19913;-78
2022/05/20 02:28:18;;;;;;;;;;;;;;;10.17;83.60;102081.97;6068394;23;20463;-78
2022/05/20 02:30:44;;;;;;;;;;;;;;;10.16;83.98;102075.88;6069245;23;19913;-79
2022/05/20 02:33:12;;;;;;;;;;;;;;;10.15;83.89;102073.22;6069043;23;20248;-79
2022/05/20 02:35:41;;;;;;;;;;;;;;;10.15;84.07;102070.63;6067812;23;19916;-78
2022/05/20 02:38:10;;;;;;;;;;;;;;;10.17;84.08;102076.72;6069334;23;19917;-78
2022/05/20 02:40:37;;;;;;;;;;;;;;;10.17;84.04;102071.50;6068361;23;19932;-78
2022/05/20 02:43:04;;;;;;;;;;;;;;;10.18;84.01;102068.00;6094298;23;19931;-78
2022/05/20 02:45:30;;;;;;;;;;;;;;;10.18;83.84;102074.13;6068531;23;19915;-78
2022/05/20 02:47:56;;;;;;;;;;;;;;;10.18;83.93;102076.75;6069418;23;19996;-78
2022/05/20 02:50:21;;;;;;;;;;;;;;;10.21;84.07;102078.53;6043454;23;19913;-78
2022/05/20 02:52:46;;;;;;;;;;;;;;;10.19;84.59;102086.38;6068345;23;19913;-78
2022/05/20 02:55:12;;;;;;;;;;;;;;;10.15;85.04;102079.34;6043559;23;20328;-77
2022/05/20 02:57:37;;;;;;;;;;;;;;;10.08;85.05;102076.66;6045839;23;19949;-77
2022/05/20 03:05:31;;;;;;;;;;;;;;;9.97;84.92;102079.16;6071287;23;20011;-77
2022/05/20 03:07:57;;;;;;;;;;;;;;;9.97;84.73;102074.81;6044641;23;19921;-77
2022/05/20 03:10:22;;;;;;;;;;;;;;;10.01;84.94;102063.50;6043739;23;20276;-78
2022/05/20 03:12:47;;;;;;;;;;;;;;;10.03;85.18;102069.63;6044508;23;19924;-78
2022/05/20 03:15:15;;;;;;;;;;;;;;;10.04;85.38;102075.72;6041670;23;20180;-77
2022/05/20 03:17:40;;;;;;;;;;;;;;;10.01;85.54;102079.22;6068673;23;19917;-77
2022/05/20 03:20:06;;;;;;;;;;;;;;;9.98;85.61;102066.06;6041257;23;20064;-78
2022/05/20 03:22:32;;;;;;;;;;;;;;;9.99;84.55;102066.97;6068614;23;19909;-77
2022/05/20 03:24:58;;;;;;;;;;;;;;;9.99;84.33;102064.34;6067076;23;19980;-77
2022/05/20 03:27:23;;;;;;;;;;;;;;;10.01;84.47;102068.75;6092408;23;19995;-77
2022/05/20 03:29:48;;;;;;;;;;;;;;;10.01;85.10;102060.88;6043170;23;20304;-77
2022/05/20 03:32:14;;;;;;;;;;;;;;;10.02;85.64;102064.38;6067711;23;20225;-77
2022/05/20 03:34:43;;;;;;;;;;;;;;;10.02;86.02;102069.59;6042434;23;19939;-78
2022/05/20 03:37:08;;;;;;;;;;;;;;;9.98;86.43;102059.97;6067882;23;20288;-78
2022/05/20 03:39:35;;;;;;;;;;;;;;;9.98;86.60;102063.44;6043593;23;19917;-78
2022/05/20 03:42:01;;;;;;;;;;;;;;;9.95;86.36;102071.28;6068030;23;19909;-78
2022/05/20 03:44:26;;;;;;;;;;;;;;;9.98;85.99;102066.06;6066262;23;19909;-78
2022/05/20 03:46:53;;;;;;;;;;;;;;;10.02;85.76;102065.25;6068958;23;19953;-78
2022/05/20 03:49:19;;;;;;;;;;;;;;;10.06;86.25;102074.88;6042490;23;19929;-78
2022/05/20 03:51:46;;;;;;;;;;;;;;;10.06;86.50;102063.53;6067934;23;20019;-78
2022/05/20 03:54:12;;;;;;;;;;;;;;;10.09;86.05;102065.31;6066914;23;19960;-78
2022/05/20 03:56:40;;;;;;;;;;;;;;;10.11;86.19;102064.44;6044256;23;20031;-78
2022/05/20 03:59:08;;;;;;;;;;;;;;;10.19;86.11;102073.28;6043638;23;20333;-76
2022/05/20 04:04:17;;;;;;;;;;;;;;;10.28;85.96;102053.28;6068544;23;20020;-78
2022/05/20 04:06:43;;;;;;;;;;;;;;;10.33;86.86;102052.44;6042763;23;19921;-78
2022/05/20 04:09:09;;;;;;;;;;;;;;;10.38;86.01;102050.75;6041733;23;19991;-78
2022/05/20 04:11:36;;;;;;;;;;;;;;;10.45;86.05;102050.81;6043113;23;19917;-75
2022/05/20 04:14:02;;;;;;;;;;;;;;;10.50;86.11;102046.47;6065856;23;19929;-75
2022/05/20 04:16:27;;;;;;;;;;;;;;;10.53;86.39;102047.41;6043059;23;20020;-75
2022/05/20 04:18:53;;;;;;;;;;;;;;;10.54;85.36;102033.44;6043131;23;19913;-75
2022/05/20 04:21:19;;;;;;;;;;;;;;;10.52;84.18;102031.66;6066358;23;19913;-75
2022/05/20 04:23:44;;;;;;;;;;;;;;;10.48;83.65;102035.13;6043828;23;20329;-74
2022/05/20 04:26:10;;;;;;;;;;;;;;;10.46;82.07;102039.47;6067351;23;20276;-74
2022/05/20 04:28:39;;;;;;;;;;;;;;;10.44;83.35;102028.97;6044425;23;19976;-74
2022/05/20 04:31:09;;;;;;;;;;;;;;;10.48;83.88;102027.25;6067736;23;19913;-75
2022/05/20 04:33:35;;;;;;;;;;;;;;;10.51;82.57;102019.41;6066792;23;19913;-74
2022/05/20 04:36:01;;;;;;;;;;;;;;;10.53;83.91;102020.28;6067239;23;19909;-74
2022/05/20 04:38:26;;;;;;;;;;;;;;;10.56;83.82;102023.84;6068531;23;20351;-74
2022/05/20 04:49:06;;;;;;;;;;;;;;;10.84;83.02;102024.00;6094470;23;20019;-73
2022/05/20 04:51:32;;;;;;;;;;;;;;;10.91;80.23;102027.56;6045763;23;20026;-74
2022/05/20 04:56:41;;;;;;;;;;;;;;;11.23;83.48;102032.09;6095531;23;19921;-74
2022/05/20 04:59:06;;;;;;;;;;;;;;;11.44;84.56;102040.03;6045318;23;19913;-74
2022/05/20 05:01:34;;;;;;;;;;;;;;;11.56;84.75;102046.22;6044629;23;19913;-75
2022/05/20 05:03:59;;;;;;;;;;;;;;;11.75;84.51;102040.16;6044583;23;19996;-75
2022/05/20 05:06:25;;;;;;;;;;;;;;;12.00;84.68;102052.50;6044965;23;19933;-75
2022/05/20 05:08:50;;;;;;;;;;;;;;;12.13;84.68;102056.91;6044512;23;19985;-75
2022/05/20 05:11:15;;;;;;;;;;;;;;;12.27;84.21;102062.16;6044726;23;19991;-75
2022/05/20 05:13:40;;;;;;;;;;;;;;;12.41;83.98;102065.69;6044323;23;19980;-75
2022/05/20 05:16:06;;;;;;;;;;;;;;;12.56;83.67;102062.16;6045203;23;19925;-75
2022/05/20 05:18:32;;;;;;;;;;;;;;;12.78;83.61;102064.78;6069201;23;19929;-75
2022/05/20 05:20:58;;;;;;;;;;;;;;;13.23;84.42;102056.75;6045389;23;20246;-75
2022/05/20 05:23:24;;;;;;;;;;;;;;;13.85;84.43;102047.72;6046015;23;19913;-75
2022/05/20 05:25:49;;;;;;;;;;;;;;;14.13;82.83;102050.16;6046060;23;20411;-75
2022/05/20 05:28:15;;;;;;;;;;;;;;;14.19;80.78;102036.97;6044849;23;19956;-74
2022/05/20 05:30:42;;;;;;;;;;;;;;;14.08;77.08;102033.53;6045550;23;19992;-74
2022/05/20 05:33:08;;;;;;;;;;;;;;;14.01;77.75;102030.06;6070112;23;19937;-75
2022/05/20 05:35:33;;;;;;;;;;;;;;;14.10;80.05;102041.44;6067280;23;19913;-75
2022/05/20 05:37:58;;;;;;;;;;;;;;;14.48;79.06;102043.75;6045259;23;20361;-75
2022/05/20 05:40:25;;;;;;;;;;;;;;;15.37;79.98;102049.00;6044360;23;19914;-75
2022/05/20 05:42:51;;;;;;;;;;;;;;;16.32;79.83;102048.53;6068854;23;19909;-75
2022/05/20 05:45:23;;;;;;;;;;;;;;;16.64;76.37;102045.38;6046055;23;19937;-75
2022/05/20 05:47:58;;;;;;;;;;;;;;;16.47;74.14;102032.41;6062853;23;19984;-76
2022/05/20 05:50:24;;;;;;;;;;;;;;;16.39;73.33;102023.75;6094044;23;20221;-76
2022/05/20 05:52:54;;;;;;;;;;;;;;;16.32;73.39;102028.28;6070717;23;20432;-75
2022/05/20 05:55:20;;;;;;;;;;;;;;;16.27;74.04;102015.09;6094740;23;19925;-79
2022/05/20 05:57:45;;;;;;;;;;;;;;;16.80;72.88;102020.34;6043779;23;19937;-76
2022/05/20 06:00:12;;;;;;;;;;;;;;;18.09;72.14;102022.97;6046240;23;19969;-78
2022/05/20 06:02:37;;;;;;;;;;;;;;;18.76;71.16;102011.50;6069545;23;19909;-77
2022/05/20 06:05:03;;;;;;;;;;;;;;;18.61;68.37;102021.63;6042637;23;19914;-77
2022/05/20 06:07:28;;;;;;;;;;;;;;;18.30;69.54;102019.78;6044189;23;19949;-76
2022/05/20 06:09:53;;;;;;;;;;;;;;;18.26;70.08;102007.50;6044784;23;19984;-75
2022/05/20 06:12:18;;;;;;;;;;;;;;;18.77;67.71;101998.16;6069131;23;19988;-76
2022/05/20 06:14:44;;;;;;;;;;;;;;;19.23;68.44;101998.69;6068336;23;20261;-75
2022/05/20 06:17:12;;;;;;;;;;;;;;;20.10;66.90;102014.63;6045432;23;20068;-76
2022/05/20 06:19:38;;;;;;;;;;;;;;;20.75;63.70;102011.50;6043028;23;19918;-77
2022/05/20 06:22:04;;;;;;;;;;;;;;;21.26;61.91;102003.41;6046245;23;19936;-76
2022/05/20 06:24:29;;;;;;;;;;;;;;;21.73;63.03;101998.06;6045433;23;20321;-77
2022/05/20 06:26:54;;;;;;;;;;;;;;;22.42;61.53;102005.00;6046075;23;19928;-74
2022/05/20 06:29:20;;;;;;;;;;;;;;;23.13;60.21;102009.91;6045417;23;20244;-77
2022/05/20 06:31:45;;;;;;;;;;;;;;;23.74;56.54;102005.25;6070165;23;19910;-73
2022/05/20 06:34:10;;;;;;;;;;;;;;;23.87;57.42;102008.22;6044977;23;19913;-74
2022/05/20 06:42:04;;;;;;;;;;;;;;;23.03;58.77;102000.56;6074079;23;20268;-77
2022/05/20 06:44:32;;;;;;;;;;;;;;;22.75;58.53;102000.94;6045745;23;20336;-76
2022/05/20 06:46:57;;;;;;;;;;;;;;;22.31;59.00;101999.22;6069951;23;20014;-72
2022/05/20 06:49:24;;;;;;;;;;;;;;;21.86;58.14;101989.56;6068053;23;19913;-74
2022/05/20 06:51:54;;;;;;;;;;;;;;;21.50;57.70;101979.41;6069828;23;20324;-75
2022/05/20 06:54:20;;;;;;;;;;;;;;;21.26;57.50;101972.31;6069355;23;19917;-73
2022/05/20 06:56:46;;;;;;;;;;;;;;;21.40;57.23;101973.56;6069706;23;19913;-78
2022/05/20 06:59:12;;;;;;;;;;;;;;;21.34;57.42;101973.81;6069259;23;19916;-73
2022/05/20 07:01:37;;;;;;;;;;;;;;;21.46;56.48;101975.97;6045558;23;19948;-74
2022/05/20 07:04:03;;;;;;;;;;;;;;;21.74;56.27;101978.44;6044367;23;19993;-74
2022/05/20 07:06:30;;;;;;;;;;;;;;;22.19;56.42;101975.72;6045411;23;20031;-75
2022/05/20 07:08:55;;;;;;;;;;;;;;;22.41;54.33;101976.59;6045495;23;19921;-74
2022/05/20 07:11:22;;;;;;;;;;;;;;;22.04;52.38;101970.13;6069530;23;19933;-75
2022/05/20 07:13:48;;;;;;;;;;;;;;;21.54;54.93;101951.72;6045048;23;20277;-78
2022/05/20 07:16:16;;;;;;;;;;;;;;;21.18;55.14;101957.56;6069287;23;20333;-76
2022/05/20 07:18:41;;;;;;;;;;;;;;;20.83;55.60;101954.41;6044869;23;19921;-74
2022/05/20 07:21:07;;;;;;;;;;;;;;;21.07;55.48;101948.16;6044655;23;19914;-73
2022/05/20 07:23:32;;;;;;;;;;;;;;;21.02;55.23;101946.59;6044189;23;19917;-74
2022/05/20 07:25:58;;;;;;;;;;;;;;;20.92;55.27;101940.75;6043252;23;19921;-73
2022/05/20 07:28:24;;;;;;;;;;;;;;;20.98;55.50;101937.84;6068214;23;19935;-74
2022/05/20 07:30:49;;;;;;;;;;;;;;;20.96;55.09;101921.06;6068617;23;19913;-75
2022/05/20 07:33:28;;;;;;;;;;;;;;;20.86;55.22;101931.22;6045454;23;20356;-74
2022/05/20 07:35:54;;;;;;;;;;;;;;;21.05;54.92;101928.69;6069910;23;19913;-75
2022/05/20 07:38:19;;;;;;;;;;;;;;;21.22;54.11;101925.38;6069203;23;19920;-76
2022/05/20 07:40:45;;;;;;;;;;;;;;;21.23;54.14;101921.81;6068114;23;19913;-74
2022/05/20 07:43:11;;;;;;;;;;;;;;;21.76;52.70;101923.22;6045464;23;19939;-75
2022/05/20 07:45:36;;;;;;;;;;;;;;;22.26;52.42;101926.47;6068337;23;19913;-76
2022/05/20 07:48:02;;;;;;;;;;;;;;;22.39;50.86;101921.50;6045096;23;19918;-75
2022/05/20 07:50:27;;;;;;;;;;;;;;;22.47;51.18;101920.22;6043442;23;19913;-75
2022/05/20 07:55:40;;;;;;;;;;;;;;;22.43;51.48;101913.28;6094051;23;19957;-74
2022/05/20 07:58:07;;;;;;;;;;;;;;;22.20;51.79;101905.41;6069453;23;19932;-74
2022/05/20 08:00:33;;;;;;;;;;;;;;;22.09;52.10;101903.19;6068255;23;19960;-81
2022/05/20 08:03:01;;;;;;;;;;;;;;;22.02;51.75;101905.25;6044604;23;19920;-76
2022/05/20 08:05:29;;;;;;;;;;;;;;;21.96;50.97;101901.03;6066799;23;19914;-74
2022/05/20 08:08:00;;;;;;;;;;;;;;;21.97;50.61;101901.91;6067680;23;19914;-75
2022/05/20 08:10:25;;;;;;;;;;;;;;;21.87;52.13;101897.91;6068517;23;19909;-75
2022/05/20 08:12:51;;;;;;;;;;;;;;;21.80;52.13;101890.16;6067951;23;19928;-74
2022/05/20 08:15:19;;;;;;;;;;;;;;;22.01;52.55;101900.84;6063545;23;19932;-75
2022/05/20 08:17:45;;;;;;;;;;;;;;;22.28;52.91;101881.88;6065804;23;19910;-74
2022/05/20 08:20:13;;;;;;;;;;;;;;;22.49;52.05;101880.94;6041083;23;20206;-75
2022/05/20 08:22:39;;;;;;;;;;;;;;;22.67;51.63;101883.72;6065517;23;20244;-76
2022/05/20 08:25:04;;;;;;;;;;;;;;;22.58;51.36;101879.66;6065770;23;20336;-75
2022/05/20 08:27:33;;;;;;;;;;;;;;;22.45;51.71;101878.50;6041850;23;19921;-76
2022/05/20 08:30:04;;;;;;;;;;;;;;;22.45;51.98;101873.16;6067195;23;20320;-77
2022/05/20 08:32:29;;;;;;;;;;;;;;;22.42;51.14;101873.28;6065913;23;19913;-75
2022/05/20 08:34:56;;;;;;;;;;;;;;;22.29;52.24;101864.94;6040609;23;19969;-75
2022/05/20 08:37:21;;;;;;;;;;;;;;;22.35;51.92;101867.34;6042270;23;19913;-76
2022/05/20 08:39:46;;;;;;;;;;;;;;;22.36;50.89;101874.44;6041518;23;20353;-76
2022/05/20 08:42:17;;;;;;;;;;;;;;;22.28;51.77;101868.53;6041900;23;19976;-76
2022/05/20 08:44:43;;;;;;;;;;;;;;;22.05;50.92;101862.44;6065426;23;20050;-75
2022/05/20 08:47:21;;;;;;;;;;;;;;;21.83;49.91;101861.63;6065898;23;20209;-80
2022/05/20 08:49:46;;;;;;;;;;;;;;;21.57;52.16;101843.13;6063653;23;19920;-75
2022/05/20 08:52:12;;;;;;;;;;;;;;;21.42;51.44;101825.06;6065768;23;19945;-75
2022/05/20 08:54:38;;;;;;;;;;;;;;;21.33;51.16;101831.63;6041545;23;19997;-76
2022/05/20 08:57:30;;;;;;;;;;;;;;;21.05;52.56;101811.44;6065876;23;19921;-73
2022/05/20 08:59:56;;;;;;;;;;;;;;;21.27;52.30;101802.56;6062489;23;19921;-75
2022/05/20 09:02:21;;;;;;;;;;;;;;;21.44;51.56;101793.88;6065866;23;19914;-76
2022/05/20 09:04:47;;;;;;;;;;;;;;;21.76;50.81;101792.50;6040058;23;19944;-75
2022/05/20 09:07:14;;;;;;;;;;;;;;;22.41;49.91;101791.44;6065708;23;19910;-77
2022/05/20 09:09:45;;;;;;;;;;;;;;;22.68;48.63;101794.59;6065041;23;19910;-74
2022/05/20 09:12:22;;;;;;;;;;;;;;;22.68;49.04;101799.94;6065338;23;19914;-75
2022/05/20 09:17:40;;;;;;;;;;;;;;;22.02;50.23;101792.28;6065804;23;19993;-76
2022/05/20 09:20:07;;;;;;;;;;;;;;;21.73;50.67;101789.13;6064194;23;19910;-74
2022/05/20 09:22:37;;;;;;;;;;;;;;;21.59;52.14;101784.38;6065184;23;19928;-75
2022/05/20 09:25:18;;;;;;;;;;;;;;;21.65;51.74;101780.56;6065167;23;19910;-77
2022/05/20 09:27:43;;;;;;;;;;;;;;;21.69;50.94;101782.19;6064767;23;19913;-77
2022/05/20 09:30:13;;;;;;;;;;;;;;;21.99;50.93;101763.94;6041187;23;19972;-75
2022/05/20 09:32:40;;;;;;;;;;;;;;;22.41;50.19;101762.06;6065203;23;19920;-77
2022/05/20 09:35:18;;;;;;;;;;;;;;;22.69;49.61;101748.25;6064033;23;20017;-75
2022/05/20 09:37:44;;;;;;;;;;;;;;;23.03;49.08;101751.97;6065064;23;19968;-75
2022/05/20 09:40:48;;;;;;;;;;;;;;;23.45;47.68;101742.72;6065259;23;19996;-73
2022/05/20 09:43:28;;;;;;;;;;;;;;;23.46;48.20;101730.19;6011781;23;19980;-75
2022/05/20 09:45:55;;;;;;;;;;;;;;;23.41;48.01;101733.13;6060065;23;19914;-77
2022/05/20 09:48:36;;;;;;;;;;;;;;;23.85;47.19;101726.38;6041525;23;20049;-75
2022/05/20 09:51:03;;;;;;;;;;;;;;;23.84;47.42;101720.13;6064594;23;20364;-80
2022/05/20 09:53:33;;;;;;;;;;;;;;;23.63;46.65;101715.94;6065623;23;19909;-79
2022/05/20 09:56:17;;;;;;;;;;;;;;;23.39;47.83;101718.97;6064980;23;19941;-80
2022/05/20 09:58:57;;;;;;;;;;;;;;;23.62;46.33;101706.16;6064929;23;19909;-75
2022/05/20 10:01:23;;;;;;;;;;;;;;;23.59;46.43;101685.81;6065278;23;19992;-76
2022/05/20 10:03:51;;;;;;;;;;;;;;;23.37;46.75;101680.72;6040582;23;19949;-77
2022/05/20 10:06:26;;;;;;;;;;;;;;;23.22;48.03;101666.38;6064541;23;19910;-76
2022/05/20 10:08:59;;;;;;;;;;;;;;;23.25;48.91;101665.34;6064583;23;19945;-76
2022/05/20 10:11:37;;;;;;;;;;;;;;;23.10;48.77;101654.47;6065021;23;19916;-77
2022/05/20 10:14:03;;;;;;;;;;;;;;;23.21;49.16;101643.22;6066514;23;20358;-77
2022/05/20 10:16:35;;;;;;;;;;;;;;;23.24;47.72;101642.22;6070031;23;19987;-77
2022/05/20 10:19:00;;;;;;;;;;;;;;;23.08;49.19;101626.09;6068565;23;19940;-78
2022/05/20 10:21:32;;;;;;;;;;;;;;;23.14;48.80;101620.44;6070050;23;20262;-78
2022/05/20 10:24:13;;;;;;;;;;;;;;;23.07;49.01;101598.47;6069068;23;19920;-76
2022/05/20 10:27:02;;;;;;;;;;;;;;;23.04;50.31;101587.94;6069873;23;19945;-77
2022/05/20 10:32:36;;;;;;;;;;;;;;;22.96;49.94;101574.13;6095504;23;20040;-76
2022/05/20 10:35:16;;;;;;;;;;;;;;;22.73;50.04;101578.88;6068081;23;19963;-74
2022/05/20 10:38:01;;;;;;;;;;;;;;;22.46;50.76;101581.97;6069665;23;19980;-77
2022/05/20 10:40:34;;;;;;;;;;;;;;;22.37;52.05;101574.44;6069111;23;19909;-76
2022/05/20 10:43:02;;;;;;;;;;;;;;;22.35;51.38;101568.28;6069358;23;19909;-75
2022/05/20 10:48:34;;;;;;;;;;;;;;;22.25;51.80;101545.66;6095317;23;19969;-77
2022/05/20 10:51:19;;;;;;;;;;;;;;;22.32;51.81;101547.06;6068552;23;19913;-75
2022/05/20 10:54:03;;;;;;;;;;;;;;;22.28;51.48;101526.78;6035986;23;19916;-77
2022/05/20 10:56:39;;;;;;;;;;;;;;;22.14;52.13;101507.00;6069843;23;19909;-74
2022/05/20 10:59:21;;;;;;;;;;;;;;;22.20;52.24;101503.16;6069336;23;19910;-73
2022/05/20 11:01:46;;;;;;;;;;;;;;;22.19;52.19;101487.22;6069404;23;19909;-77
2022/05/20 11:04:27;;;;;;;;;;;;;;;22.18;52.11;101469.47;6067900;23;19913;-75
2022/05/20 11:07:08;;;;;;;;;;;;;;;22.14;52.79;101456.28;6069398;23;19963;-77
2022/05/20 11:09:39;;;;;;;;;;;;;;;22.08;53.06;101437.94;6069209;23;19914;-76
2022/05/20 11:12:05;;;;;;;;;;;;;;;22.09;52.90;101428.97;6069403;23;19909;-79
2022/05/20 11:14:30;;;;;;;;;;;;;;;22.15;53.26;101433.13;6068950;23;19921;-74
2022/05/20 11:17:08;;;;;;;;;;;;;;;22.13;53.12;101411.00;6069309;23;19999;-75
2022/05/20 11:19:39;;;;;;;;;;;;;;;22.10;54.57;101403.16;6068213;23;19905;-75
2022/05/20 11:22:11;;;;;;;;;;;;;;;22.16;53.25;101389.50;6069544;23;19964;-74
2022/05/20 11:24:42;;;;;;;;;;;;;;;22.11;54.45;101392.41;6069056;23;20016;-74
2022/05/20 11:27:17;;;;;;;;;;;;;;;22.22;54.18;101381.16;6069415;23;20329;-77
2022/05/20 11:29:59;;;;;;;;;;;;;;;22.24;53.76;101383.75;6069053;23;19914;-78
2022/05/20 11:32:32;;;;;;;;;;;;;;;22.16;55.00;101381.47;6069216;23;19968;-75
2022/05/20 11:35:22;;;;;;;;;;;;;;;22.14;54.49;101373.56;6067508;23;19940;-73
2022/05/20 11:38:02;;;;;;;;;;;;;;;22.01;54.78;101367.13;6069238;23;19940;-73
2022/05/20 11:40:36;;;;;;;;;;;;;;;21.87;55.12;101361.66;6069045;23;19909;-76
2022/05/20 11:43:07;;;;;;;;;;;;;;;21.69;55.56;101358.09;6068709;23;20316;-76
2022/05/20 11:45:48;;;;;;;;;;;;;;;21.61;55.85;101354.00;6069002;23;19913;-73
2022/05/20 11:48:16;;;;;;;;;;;;;;;21.32;56.81;101355.44;6068909;23;20016;-76
2022/05/20 11:50:51;;;;;;;;;;;;;;;21.15;57.03;101358.03;6067854;23;19987;-76
2022/05/20 11:53:38;;;;;;;;;;;;;;;20.89;57.92;101361.00;6094916;23;19960;-77
2022/05/20 11:56:14;;;;;;;;;;;;;;;20.69;58.05;101353.94;6068236;23;19944;-80
2022/05/20 11:58:39;;;;;;;;;;;;;;;20.63;58.59;101340.88;6069125;23;19937;-75
2022/05/20 12:01:05;;;;;;;;;;;;;;;20.52;58.67;101324.53;6068739;23;19916;-77
2022/05/20 12:04:14;;;;;;;;;;;;;;;20.52;59.36;101329.84;6068383;23;20023;-76
2022/05/20 12:06:25;;;;;;;;;;;;;;;20.37;59.54;101315.44;6075992;23;20036;-78
2022/05/20 12:08:52;;;;;;;;;;;;;;;20.35;59.98;101334.13;6068756;23;19917;-76
2022/05/20 12:11:17;;;;;;;;;;;;;;;20.12;60.00;101311.22;6068909;23;19947;-78
2022/05/20 12:13:58;;;;;;;;;;;;;;;20.04;60.39;101311.56;6068548;23;20410;-77
2022/05/20 12:16:23;;;;;;;;;;;;;;;19.95;60.60;101314.63;6069007;23;19944;-75
2022/05/20 12:24:52;;;;;;;;;;;;;;;19.63;62.08;101290.25;6094349;23;19932;-72
2022/05/20 12:27:20;;;;;;;;;;;;;;;19.42;63.23;101299.97;6045406;23;19949;-75
2022/05/20 12:29:54;;;;;;;;;;;;;;;19.24;63.85;101295.41;6068888;23;19921;-75
2022/05/20 12:32:24;;;;;;;;;;;;;;;19.12;65.88;101286.16;6068517;23;19917;-74
2022/05/20 12:35:05;;;;;;;;;;;;;;;18.95;65.65;101292.16;6067294;23;19909;-73
2022/05/20 12:37:42;;;;;;;;;;;;;;;18.80;66.77;101275.88;6069172;23;19909;-73
2022/05/20 12:40:17;;;;;;;;;;;;;;;18.74;65.72;101256.69;6068716;23;20008;-74
2022/05/20 12:42:47;;;;;;;;;;;;;;;18.75;66.92;101239.81;6069259;23;20400;-74
2022/05/20 12:45:12;;;;;;;;;;;;;;;18.67;67.34;101225.06;6068914;23;19909;-79
2022/05/20 12:47:38;;;;;;;;;;;;;;;18.55;67.55;101196.34;6068976;23;19909;-79
2022/05/20 12:50:03;;;;;;;;;;;;;;;18.55;68.26;101200.78;6067776;23;19935;-81
2022/05/20 12:52:34;;;;;;;;;;;;;;;18.50;69.40;101196.53;6069167;23;19909;-78
2022/05/20 12:55:20;;;;;;;;;;;;;;;18.41;68.44;101217.25;6068548;23;20535;-79
2022/05/20 12:57:53;;;;;;;;;;;;;;;18.48;69.45;101218.75;6068308;23;19916;-80
2022/05/20 13:00:26;;;;;;;;;;;;;;;18.54;69.56;101205.22;6068700;23;20261;-80
2022/05/20 13:02:55;;;;;;;;;;;;;;;18.69;68.88;101222.34;6068925;23;19913;-80
2022/05/20 13:05:28;;;;;;;;;;;;;;;18.91;70.36;101218.88;6067360;23;19909;-80
2022/05/20 13:07:55;;;;;;;;;;;;;;;19.09;71.53;101233.19;6096179;23;19924;-75
2022/05/20 13:10:24;;;;;;;;;;;;;;;19.17;72.34;101231.06;6070270;23;19989;-81
2022/05/20 13:12:50;;;;;;;;;;;;;;;19.17;69.41;101231.06;6068238;23;19991;-80
2022/05/20 13:15:19;;;;;;;;;;;;;;;19.20;72.10;101236.25;6038515;23;19925;-80
2022/05/20 13:18:06;;;;;;;;;;;;;;;19.22;69.55;101234.38;6040946;23;20313;-80
2022/05/20 13:20:32;;;;;;;;;;;;;;;19.28;68.36;101228.84;6061818;23;19916;-81
2022/05/20 13:23:06;;;;;;;;;;;;;;;19.36;71.21;101232.00;6039990;23;19925;-80
2022/05/20 13:25:32;;;;;;;;;;;;;;;19.46;71.26;101255.56;6063613;23;20000;-81
2022/05/20 13:27:59;;;;;;;;;;;;;;;19.51;71.28;101230.50;6039683;23;19918;-81
2022/05/20 13:30:34;;;;;;;;;;;;;;;19.59;70.87;101208.91;6063763;23;19945;-78
2022/05/20 13:33:10;;;;;;;;;;;;;;;19.74;71.27;101181.66;6040228;23;20297;-78